Time;durP1;ratioP1;P1;durP2;ratioP2;P2;SDS_P1;SDS_P2;PMS_P1;PMS_P2;Temp;Humidity;BMP_temperature;BMP_pressure;BME280_temperature;BME280_humidity;BME280_pressure;Samples;Min_cycle;Max_cycle;Signal;HPM_P1;HPM_P2
2021/12/03 00:01:40;;;;;;;;;5.60;5.60;;;;;13.77;46.03;97678.59;4763843;30;8914;-71
2021/12/03 00:04:09;;;;;;;;;6.80;6.80;;;;;13.83;46.10;97682.72;4763211;30;9014;-72
2021/12/03 00:06:38;;;;;;;;;7.00;5.00;;;;;13.82;46.11;97684.50;4719959;30;9024;-71
2021/12/03 00:09:08;;;;;;;;;8.40;5.40;;;;;13.91;45.37;97682.38;4748522;30;9750;-72
2021/12/03 00:11:37;;;;;;;;;5.00;5.00;;;;;13.98;45.38;97679.41;4748913;30;8906;-71
2021/12/03 00:14:06;;;;;;;;;9.00;4.40;;;;;13.95;45.28;97669.09;4763419;29;8961;-72
2021/12/03 00:16:34;;;;;;;;;4.00;4.00;;;;;13.88;45.51;97665.03;4748593;30;9032;-72
2021/12/03 00:19:03;;;;;;;;;5.00;4.40;;;;;13.84;45.43;97674.78;4763358;30;8917;-72
2021/12/03 00:21:32;;;;;;;;;8.40;5.80;;;;;13.87;45.94;97676.41;4748648;30;8906;-70
2021/12/03 00:24:02;;;;;;;;;5.40;4.00;;;;;13.87;45.55;97681.66;4748013;30;9021;-72
2021/12/03 00:26:31;;;;;;;;;5.00;5.00;;;;;13.86;46.19;97694.84;4763155;30;8890;-72
2021/12/03 00:28:59;;;;;;;;;6.00;5.00;;;;;13.88;45.89;97679.91;4763202;30;8932;-71
2021/12/03 00:31:28;;;;;;;;;4.40;4.40;;;;;13.86;45.64;97681.75;4734623;30;8902;-73
2021/12/03 00:33:57;;;;;;;;;5.80;4.00;;;;;13.70;46.31;97686.78;4733714;30;8898;-72
2021/12/03 00:36:26;;;;;;;;;9.60;6.60;;;;;13.71;46.30;97685.88;4778906;29;8890;-72
2021/12/03 00:38:58;;;;;;;;;6.60;6.60;;;;;13.67;45.77;97685.16;4777946;29;8906;-72
2021/12/03 00:41:33;;;;;;;;;5.80;5.00;;;;;13.64;46.24;97688.75;4779152;29;8920;-72
2021/12/03 00:44:02;;;;;;;;;5.60;5.00;;;;;13.61;45.85;97691.50;4765081;30;9597;-71
2021/12/03 00:46:31;;;;;;;;;5.00;4.80;;;;;13.61;45.68;97695.88;4765163;30;8918;-72
2021/12/03 00:48:59;;;;;;;;;7.00;5.20;;;;;13.53;46.21;97696.19;4766587;30;8914;-71
2021/12/03 00:51:28;;;;;;;;;4.00;4.00;;;;;13.54;46.18;97690.06;4765536;30;8891;-72
2021/12/03 00:53:57;;;;;;;;;6.40;5.20;;;;;13.53;47.01;97687.50;4734153;30;8894;-73
2021/12/03 00:56:26;;;;;;;;;6.40;6.00;;;;;13.42;47.19;97688.81;4778577;29;8957;-72
2021/12/03 00:58:55;;;;;;;;;8.20;6.40;;;;;13.36;46.41;97698.69;4765095;30;8871;-71
2021/12/03 01:01:24;;;;;;;;;4.80;4.20;;;;;13.39;46.51;97702.03;4765239;30;8874;-70
2021/12/03 01:03:53;;;;;;;;;4.00;3.80;;;;;13.40;46.65;97714.22;4765057;30;8871;-71
2021/12/03 01:06:22;;;;;;;;;3.40;3.40;;;;;13.38;46.52;97700.34;4765078;30;8906;-72
2021/12/03 01:08:51;;;;;;;;;8.40;5.60;;;;;13.36;46.97;97717.00;4764830;30;8906;-71
2021/12/03 01:11:22;;;;;;;;;4.60;4.00;;;;;13.40;46.50;97714.22;4764743;30;8902;-72
2021/12/03 01:13:50;;;;;;;;;3.80;3.80;;;;;13.52;46.33;97702.38;4765180;30;8894;-71
2021/12/03 01:16:21;;;;;;;;;5.40;5.40;;;;;13.63;46.17;97701.94;4764882;30;8891;-72
2021/12/03 01:18:49;;;;;;;;;6.60;4.40;;;;;13.62;46.62;97711.53;4764852;30;8875;-71
2021/12/03 01:21:18;;;;;;;;;5.20;5.20;;;;;13.64;46.46;97703.59;4763991;30;8914;-71
2021/12/03 01:23:48;;;;;;;;;2.00;2.00;;;;;13.63;46.11;97707.16;4764507;30;8902;-72
2021/12/03 01:26:17;;;;;;;;;4.00;4.00;;;;;13.68;46.05;97702.56;4765170;30;8910;-71
2021/12/03 01:28:46;;;;;;;;;5.80;5.60;;;;;13.77;45.98;97702.16;4764805;30;8994;-72
2021/12/03 01:31:16;;;;;;;;;6.00;5.60;;;;;13.80;45.94;97704.66;4764623;30;9683;-73
2021/12/03 01:33:48;;;;;;;;;4.00;3.00;;;;;13.79;46.47;97705.56;4765271;30;8921;-72
2021/12/03 01:36:17;;;;;;;;;5.40;5.40;;;;;13.88;46.13;97695.63;4778658;29;9028;-72
2021/12/03 01:38:45;;;;;;;;;6.00;5.80;;;;;13.87;46.05;97700.00;4764839;30;8906;-72
2021/12/03 01:41:14;;;;;;;;;9.20;6.40;;;;;13.87;45.55;97701.78;4764861;30;8867;-72
2021/12/03 01:43:44;;;;;;;;;4.60;4.60;;;;;13.89;45.29;97706.00;4778521;29;9724;-71
2021/12/03 01:46:18;;;;;;;;;6.80;6.40;;;;;13.90;45.42;97709.50;4765752;30;8928;-71
2021/12/03 01:48:49;;;;;;;;;4.80;4.80;;;;;13.97;45.87;97716.16;4752502;30;8922;-72
2021/12/03 01:51:19;;;;;;;;;4.80;4.00;;;;;14.04;45.26;97702.75;4768020;30;8910;-71
2021/12/03 01:53:47;;;;;;;;;7.20;6.80;;;;;14.11;45.26;97705.94;4766150;30;8910;-71
2021/12/03 01:56:20;;;;;;;;;6.40;6.00;;;;;14.16;44.86;97708.38;4782166;29;9037;-71
2021/12/03 01:58:51;;;;;;;;;6.20;5.00;;;;;14.19;44.64;97701.19;4781883;29;8971;-72
2021/12/03 02:01:22;;;;;;;;;4.40;4.40;;;;;14.30;44.54;97699.88;4768470;30;8916;-71
2021/12/03 02:03:56;;;;;;;;;5.60;4.20;;;;;14.36;44.69;97710.91;4768065;30;8890;-71
2021/12/03 02:06:26;;;;;;;;;4.00;4.00;;;;;14.26;44.28;97720.13;4768318;30;8991;-71
2021/12/03 02:08:56;;;;;;;;;5.00;5.00;;;;;14.39;44.62;97717.81;4767736;30;8921;-71
2021/12/03 02:11:25;;;;;;;;;4.40;4.00;;;;;14.46;44.03;97706.13;4768259;30;8906;-71
2021/12/03 02:13:54;;;;;;;;;5.40;5.40;;;;;14.48;44.12;97720.00;4767945;30;8895;-71
2021/12/03 02:16:24;;;;;;;;;5.00;5.00;;;;;13.89;45.27;97753.19;4736798;30;8906;-70
2021/12/03 02:18:54;;;;;;;;;5.00;5.00;;;;;13.29;47.70;97760.91;4781587;29;8988;-72
2021/12/03 02:21:25;;;;;;;;;5.40;5.40;;;;;13.51;47.55;97758.25;4782947;29;9595;-72
2021/12/03 02:23:55;;;;;;;;;5.60;5.60;;;;;13.63;46.82;97772.66;4783163;29;8939;-72
2021/12/03 02:26:24;;;;;;;;;7.80;6.40;;;;;13.41;47.09;97785.75;4768826;29;8934;-72
2021/12/03 02:28:53;;;;;;;;;10.80;7.00;;;;;13.65;47.24;97791.75;4767694;29;8904;-71
2021/12/03 02:31:24;;;;;;;;;5.40;5.40;;;;;13.61;47.15;97811.09;4783301;29;8876;-71
2021/12/03 02:33:54;;;;;;;;;10.20;8.20;;;;;13.55;47.91;97817.44;4783332;29;8865;-73
2021/12/03 02:36:24;;;;;;;;;6.20;5.60;;;;;13.73;47.48;97828.13;4768537;29;8913;-72
2021/12/03 02:38:53;;;;;;;;;10.40;8.40;;;;;13.64;48.25;97826.72;4752916;29;8944;-72
2021/12/03 02:41:22;;;;;;;;;8.20;8.20;;;;;13.52;49.17;97835.09;4768216;29;8880;-72
2021/12/03 02:43:51;;;;;;;;;11.40;10.80;;;;;13.22;50.33;97851.03;4783112;29;8876;-73
2021/12/03 02:46:19;;;;;;;;;12.60;12.40;;;;;13.02;52.95;97846.56;4753325;29;8900;-72
2021/12/03 02:48:48;;;;;;;;;19.20;18.20;;;;;12.50;56.01;97861.56;4783604;29;8892;-71
2021/12/03 02:51:17;;;;;;;;;24.40;22.00;;;;;11.79;58.84;97869.13;4782890;29;9667;-71
2021/12/03 02:53:47;;;;;;;;;25.25;22.75;;;;;11.04;62.73;97882.75;4767540;30;8898;-72
2021/12/03 02:56:16;;;;;;;;;28.25;26.00;;;;;11.07;63.59;97880.91;4767108;30;8882;-72
2021/12/03 02:58:45;;;;;;;;;17.00;16.75;;;;;11.27;62.28;97897.75;4766877;30;8987;-71
2021/12/03 03:01:14;;;;;;;;;22.20;22.20;;;;;11.39;62.12;97893.91;4767244;30;8882;-72
2021/12/03 03:03:43;;;;;;;;;25.25;22.75;;;;;10.80;64.88;97892.16;4780813;29;8894;-71
2021/12/03 03:06:12;;;;;;;;;35.25;29.50;;;;;10.58;66.74;97899.69;4791898;29;9050;-71
2021/12/03 03:08:43;;;;;;;;;27.75;26.00;;;;;10.07;69.11;97914.84;4767163;30;8866;-71
2021/12/03 03:11:14;;;;;;;;;28.25;27.25;;;;;9.90;70.31;97928.28;4749812;30;8941;-70
2021/12/03 03:13:42;;;;;;;;;34.25;26.50;;;;;9.58;72.20;97944.66;4750495;29;8918;-71
2021/12/03 03:16:17;;;;;;;;;27.50;24.00;;;;;9.39;73.34;97954.59;4766774;30;8898;-70
2021/12/03 03:18:46;;;;;;;;;25.50;24.75;;;;;9.18;74.68;97963.72;4766713;30;9003;-71
2021/12/03 03:21:19;;;;;;;;;34.00;27.75;;;;;8.96;75.22;97969.38;4749616;29;8899;-71
2021/12/03 03:23:49;;;;;;;;;37.25;31.00;;;;;8.81;76.85;97963.59;4780471;29;8909;-72
2021/12/03 03:26:20;;;;;;;;;31.25;26.50;;;;;8.41;79.22;97975.53;4775676;29;8910;-70
2021/12/03 03:28:48;;;;;;;;;31.25;27.75;;;;;8.11;81.15;97977.78;4754663;30;9611;-71
2021/12/03 03:31:17;;;;;;;;;25.40;21.40;;;;;7.69;81.27;98000.88;4766658;30;8946;-71
2021/12/03 03:33:46;;;;;;;;;20.80;18.00;;;;;7.38;83.35;98003.03;4763816;30;8906;-72
2021/12/03 03:36:16;;;;;;;;;16.20;15.80;;;;;7.31;83.40;98012.59;4741728;30;8885;-72
2021/12/03 03:38:44;;;;;;;;;14.00;11.80;;;;;6.99;85.23;98039.78;4701848;29;8922;-71
2021/12/03 03:41:13;;;;;;;;;20.00;16.20;;;;;6.74;87.72;98035.72;4763977;30;8910;-70
2021/12/03 03:43:43;;;;;;;;;13.60;12.60;;;;;6.68;88.28;98035.78;4746962;30;8906;-71
2021/12/03 03:46:12;;;;;;;;;15.00;14.00;;;;;6.66;88.73;98027.16;4739900;30;8902;-70
2021/12/03 03:48:41;;;;;;;;;16.40;14.60;;;;;6.51;89.65;98023.81;4717253;30;8895;-71
2021/12/03 03:51:09;;;;;;;;;14.20;13.80;;;;;6.46;90.57;98043.72;4746122;30;8963;-72
2021/12/03 03:53:40;;;;;;;;;20.20;17.20;;;;;6.28;91.68;98049.06;4746275;30;8909;-72
2021/12/03 03:56:10;;;;;;;;;14.60;12.60;;;;;6.29;92.49;98050.75;4730468;30;8882;-71
2021/12/03 03:58:41;;;;;;;;;19.60;17.40;;;;;6.17;93.71;98069.84;4745902;30;8917;-71
2021/12/03 04:01:13;;;;;;;;;19.00;16.60;;;;;6.22;94.06;98073.25;4742889;30;9077;-71
2021/12/03 04:03:46;;;;;;;;;19.00;16.20;;;;;6.15;94.77;98089.69;4713722;30;8880;-71
2021/12/03 04:06:15;;;;;;;;;14.80;14.40;;;;;6.11;95.74;98099.19;4736390;30;8904;-71
2021/12/03 04:08:44;;;;;;;;;18.80;17.00;;;;;5.98;97.49;98098.41;4744980;30;8875;-72
2021/12/03 04:11:13;;;;;;;;;15.75;14.50;;;;;6.01;97.98;98102.69;4746086;30;8963;-73
2021/12/03 04:13:42;;;;;;;;;11.75;10.00;;;;;5.94;99.75;98111.34;4746223;30;8894;-72
2021/12/03 04:16:12;;;;;;;;;14.00;11.25;;;;;6.01;100.00;98115.63;4766211;30;8948;-72
2021/12/03 04:18:41;;;;;;;;;19.25;16.00;;;;;5.86;100.00;98124.31;4765423;30;8894;-70
2021/12/03 04:21:10;;;;;;;;;17.25;14.50;;;;;5.74;100.00;98125.22;4763609;30;8922;-71
2021/12/03 04:23:39;;;;;;;;;14.60;10.40;;;;;5.73;100.00;98123.50;4762045;30;8888;-69
2021/12/03 04:26:08;;;;;;;;;17.60;14.80;;;;;5.75;100.00;98137.28;4765900;29;8979;-71
2021/12/03 04:28:37;;;;;;;;;17.40;13.00;;;;;5.72;100.00;98149.38;4778749;29;8953;-70
2021/12/03 04:31:05;;;;;;;;;17.60;11.60;;;;;5.71;100.00;98157.97;4780170;29;8890;-70
2021/12/03 04:33:35;;;;;;;;;15.00;12.60;;;;;5.55;100.00;98165.78;4765770;30;8898;-70
2021/12/03 04:36:05;;;;;;;;;13.50;11.75;;;;;5.54;100.00;98161.50;4764474;30;8898;-71
2021/12/03 04:38:34;;;;;;;;;15.25;11.25;;;;;5.58;100.00;98176.16;4766494;30;9010;-71
2021/12/03 04:41:03;;;;;;;;;14.60;11.80;;;;;5.45;100.00;98166.69;4766003;30;8929;-71
2021/12/03 04:43:32;;;;;;;;;7.75;7.00;;;;;5.25;100.00;98182.22;4765696;30;9048;-70
2021/12/03 04:46:01;;;;;;;;;10.80;9.00;;;;;5.19;100.00;98183.09;4780937;29;9018;-70
2021/12/03 04:48:30;;;;;;;;;12.20;8.80;;;;;5.24;100.00;98178.78;4780942;29;9016;-71
2021/12/03 04:51:00;;;;;;;;;13.00;9.40;;;;;5.16;100.00;98190.00;4781044;29;8893;-71
2021/12/03 04:53:29;;;;;;;;;11.00;9.40;;;;;5.13;100.00;98195.19;4780473;29;8916;-72
2021/12/03 04:55:57;;;;;;;;;14.80;13.00;;;;;5.17;100.00;98200.31;4765594;29;8893;-71
2021/12/03 04:58:26;;;;;;;;;11.80;11.00;;;;;5.20;100.00;98204.66;4780852;29;8982;-70
2021/12/03 05:00:57;;;;;;;;;8.20;8.20;;;;;5.13;100.00;98202.94;4780516;29;8905;-71
2021/12/03 05:03:29;;;;;;;;;5.00;5.00;;;;;5.10;100.00;98208.09;4766000;29;9086;-71
2021/12/03 05:06:02;;;;;;;;;6.20;6.20;;;;;4.98;100.00;98230.47;4780553;29;8884;-72
2021/12/03 05:08:32;;;;;;;;;7.40;7.00;;;;;4.95;100.00;98237.34;4780351;29;8905;-71
2021/12/03 05:11:01;;;;;;;;;8.60;8.60;;;;;4.92;100.00;98243.41;4768807;29;8888;-71
2021/12/03 05:13:31;;;;;;;;;5.60;4.40;;;;;4.88;100.00;98246.84;4766127;29;8880;-70
2021/12/03 05:16:00;;;;;;;;;8.60;8.60;;;;;4.88;100.00;98252.00;4766571;29;8896;-71
2021/12/03 05:18:30;;;;;;;;;8.40;8.40;;;;;4.84;100.00;98265.78;4766144;29;8913;-71
2021/12/03 05:21:02;;;;;;;;;11.40;11.00;;;;;4.82;100.00;98273.53;4764624;30;8928;-73
2021/12/03 05:23:33;;;;;;;;;12.00;10.00;;;;;4.80;100.00;98280.41;4753567;30;8983;-71
2021/12/03 05:26:01;;;;;;;;;11.40;11.40;;;;;4.82;100.00;98277.81;4764838;30;8918;-71
2021/12/03 05:28:31;;;;;;;;;1.80;1.20;;;;;4.73;100.00;98288.13;4764286;30;8917;-71
2021/12/03 05:31:00;;;;;;;;;9.40;8.20;;;;;4.68;100.00;98288.97;4758694;30;8894;-72
2021/12/03 05:33:29;;;;;;;;;9.20;8.80;;;;;4.66;100.00;98287.25;4764189;30;8960;-73
2021/12/03 05:35:57;;;;;;;;;5.00;5.00;;;;;4.59;100.00;98307.00;4764890;30;8930;-71
2021/12/03 05:38:28;;;;;;;;;5.80;5.00;;;;;4.56;100.00;98319.06;4765019;30;8941;-72
2021/12/03 05:40:56;;;;;;;;;5.60;5.60;;;;;4.51;100.00;98331.94;4764878;30;8914;-73
2021/12/03 05:43:25;;;;;;;;;11.20;8.80;;;;;4.47;100.00;98331.06;4778383;29;8953;-72
2021/12/03 05:45:54;;;;;;;;;2.20;2.20;;;;;4.43;100.00;98338.81;4778228;29;8904;-73
2021/12/03 05:48:22;;;;;;;;;7.80;7.60;;;;;4.47;100.00;98354.28;4732949;30;9720;-73
2021/12/03 05:50:52;;;;;;;;;3.20;3.20;;;;;4.36;100.00;98357.69;4762865;30;8986;-71
2021/12/03 05:53:21;;;;;;;;;3.20;2.80;;;;;4.24;100.00;98358.50;4765119;30;8902;-72
2021/12/03 05:55:50;;;;;;;;;7.20;6.20;;;;;4.28;100.00;98375.72;4778116;29;8967;-72
2021/12/03 05:58:20;;;;;;;;;7.60;5.00;;;;;4.18;100.00;98374.81;4762956;30;9076;-72
2021/12/03 06:00:49;;;;;;;;;7.20;5.00;;;;;4.19;100.00;98381.66;4764776;30;8924;-72
2021/12/03 06:03:18;;;;;;;;;7.60;4.60;;;;;4.17;100.00;98380.81;4777400;29;8969;-72
2021/12/03 06:05:47;;;;;;;;;6.20;6.20;;;;;4.15;100.00;98395.41;4749518;30;8902;-72
2021/12/03 06:08:16;;;;;;;;;8.00;6.60;;;;;4.15;100.00;98399.72;4764576;30;9995;-72
2021/12/03 06:10:44;;;;;;;;;4.40;2.80;;;;;4.12;100.00;98410.88;4763800;30;8991;-73
2021/12/03 06:13:14;;;;;;;;;8.20;5.00;;;;;4.07;100.00;98416.00;4733270;30;8918;-73
2021/12/03 06:15:43;;;;;;;;;7.00;7.00;;;;;4.08;100.00;98414.28;4755681;30;8904;-74
2021/12/03 06:18:12;;;;;;;;;4.20;3.60;;;;;3.97;100.00;98429.69;4766527;30;8949;-74
2021/12/03 06:20:40;;;;;;;;;10.60;5.40;;;;;3.92;100.00;98438.25;4777345;29;8902;-74
2021/12/03 06:23:09;;;;;;;;;4.80;4.80;;;;;3.81;100.00;98445.88;4777740;29;8988;-74
2021/12/03 06:25:38;;;;;;;;;4.00;2.40;;;;;3.77;100.00;98444.13;4747985;30;8906;-73
2021/12/03 06:28:07;;;;;;;;;7.80;7.00;;;;;3.73;100.00;98456.13;4777305;29;9012;-75
2021/12/03 06:30:38;;;;;;;;;1.60;1.60;;;;;3.59;100.00;98476.63;4761617;30;8964;-74
2021/12/03 06:33:06;;;;;;;;;2.40;2.40;;;;;3.46;100.00;98485.06;4744848;30;8908;-74
2021/12/03 06:35:35;;;;;;;;;4.60;4.00;;;;;3.45;100.00;98483.34;4728610;30;8890;-74
2021/12/03 06:38:04;;;;;;;;;5.40;5.40;;;;;3.47;100.00;98485.06;4721177;30;8902;-74
2021/12/03 06:40:33;;;;;;;;;2.00;2.00;;;;;3.40;100.00;98492.72;4735323;30;8914;-73
2021/12/03 06:43:01;;;;;;;;;0.80;0.00;;;;;3.27;100.00;98495.19;4764222;30;8918;-76
2021/12/03 06:45:30;;;;;;;;;4.40;4.00;;;;;3.30;100.00;98507.22;4749431;30;8882;-74
2021/12/03 06:48:00;;;;;;;;;3.20;2.40;;;;;3.32;100.00;98506.38;4750087;30;8906;-74
2021/12/03 06:50:29;;;;;;;;;4.00;4.00;;;;;3.19;100.00;98512.25;4749718;30;8891;-73
2021/12/03 06:53:01;;;;;;;;;3.60;2.00;;;;;3.25;100.00;98514.91;4764888;30;9040;-73
2021/12/03 06:55:37;;;;;;;;;9.60;6.80;;;;;3.21;100.00;98513.13;4764261;30;9053;-72
2021/12/03 06:58:06;;;;;;;;;10.80;8.40;;;;;3.22;100.00;98535.47;4750037;30;8910;-74
2021/12/03 07:00:34;;;;;;;;;6.00;5.20;;;;;3.16;100.00;98543.13;4725000;30;9071;-74
2021/12/03 07:03:04;;;;;;;;;3.60;3.60;;;;;3.10;100.00;98546.50;4734753;30;8888;-75
2021/12/03 07:05:34;;;;;;;;;8.00;5.00;;;;;3.16;100.00;98549.97;4720250;30;8872;-74
2021/12/03 07:08:03;;;;;;;;;4.60;4.00;;;;;3.07;100.00;98559.31;4749103;30;8889;-75
2021/12/03 07:10:32;;;;;;;;;6.00;4.40;;;;;3.11;100.00;98558.50;4749694;30;9770;-74
2021/12/03 07:13:02;;;;;;;;;4.00;4.00;;;;;3.11;100.00;98563.66;4747094;30;9623;-74
2021/12/03 07:15:30;;;;;;;;;5.40;4.80;;;;;3.18;100.00;98585.22;4746930;30;8902;-76
2021/12/03 07:17:59;;;;;;;;;5.60;4.80;;;;;3.22;100.00;98593.88;4749647;30;8872;-75
2021/12/03 07:20:29;;;;;;;;;4.80;4.80;;;;;3.28;100.00;98604.25;4733194;30;8920;-73
2021/12/03 07:22:58;;;;;;;;;2.40;2.40;;;;;3.23;100.00;98608.47;4778369;29;8983;-75
2021/12/03 07:25:27;;;;;;;;;5.40;5.40;;;;;3.31;100.00;98612.03;4779939;29;8991;-75
2021/12/03 07:27:56;;;;;;;;;7.20;5.40;;;;;3.35;100.00;98608.63;4766084;30;9032;-76
2021/12/03 07:30:30;;;;;;;;;7.00;5.40;;;;;3.48;100.00;98615.69;4765622;29;9045;-75
2021/12/03 07:33:01;;;;;;;;;5.00;5.00;;;;;3.60;100.00;98624.41;4764705;30;8995;-74
2021/12/03 07:35:31;;;;;;;;;8.00;7.20;;;;;3.79;100.00;98628.06;4780101;29;8902;-75
2021/12/03 07:38:00;;;;;;;;;8.80;6.60;;;;;3.59;100.00;98636.44;4766436;30;8875;-75
2021/12/03 07:40:29;;;;;;;;;11.00;9.20;;;;;3.76;100.00;98641.78;4765282;30;8898;-75
2021/12/03 07:42:57;;;;;;;;;4.00;4.00;;;;;4.04;100.00;98644.69;4749581;30;8918;-74
2021/12/03 07:45:26;;;;;;;;;3.60;3.20;;;;;4.17;100.00;98654.28;4778466;29;9742;-74
2021/12/03 07:47:55;;;;;;;;;7.00;4.80;;;;;4.22;100.00;98659.50;4748274;30;9629;-74
2021/12/03 07:50:23;;;;;;;;;8.00;5.00;;;;;4.25;100.00;98665.56;4765879;30;8898;-75
2021/12/03 07:52:53;;;;;;;;;8.60;5.80;;;;;4.33;100.00;98672.50;4779337;29;8902;-75
2021/12/03 07:55:22;;;;;;;;;4.20;4.20;;;;;4.47;100.00;98671.78;4749005;30;8898;-74
2021/12/03 07:57:52;;;;;;;;;7.20;6.00;;;;;4.59;100.00;98683.09;4774787;29;8910;-73
2021/12/03 08:00:21;;;;;;;;;5.20;5.20;;;;;4.41;100.00;98681.22;4773296;29;8906;-72
2021/12/03 08:03:10;;;;;;;;;5.00;5.00;;;;;4.49;100.00;98683.00;4778874;29;8951;-72
2021/12/03 08:05:40;;;;;;;;;10.80;9.60;;;;;4.55;100.00;98695.09;4765607;30;9014;-74
2021/12/03 08:08:10;;;;;;;;;8.60;8.60;;;;;4.53;99.86;98709.72;4779006;29;8894;-73
2021/12/03 08:10:39;;;;;;;;;8.80;8.80;;;;;4.63;99.98;98711.56;4779327;29;9006;-74
2021/12/03 08:13:08;;;;;;;;;11.00;11.00;;;;;4.58;99.61;98702.91;4762266;30;8928;-74
2021/12/03 08:15:38;;;;;;;;;13.80;10.00;;;;;4.66;99.65;98713.28;4777295;29;8906;-75
2021/12/03 08:18:07;;;;;;;;;13.40;12.40;;;;;4.43;98.73;98728.56;4778007;29;9026;-74
2021/12/03 08:20:36;;;;;;;;;8.60;7.00;;;;;4.55;98.99;98736.41;4779053;29;8898;-73
2021/12/03 08:23:05;;;;;;;;;12.60;12.00;;;;;4.63;99.27;98737.38;4765636;29;8886;-74
2021/12/03 08:25:35;;;;;;;;;19.40;16.00;;;;;4.77;99.60;98741.81;4768704;30;9774;-74
2021/12/03 08:28:03;;;;;;;;;22.20;15.40;;;;;4.59;98.41;98750.22;4762837;30;9711;-73
2021/12/03 08:30:32;;;;;;;;;12.80;12.60;;;;;4.54;96.71;98762.22;4763685;30;9657;-74
2021/12/03 08:33:01;;;;;;;;;17.25;13.75;;;;;4.14;98.34;98756.59;4744749;30;8901;-75
2021/12/03 08:35:30;;;;;;;;;19.40;15.40;;;;;3.96;98.35;98762.41;4744797;30;9015;-76
2021/12/03 08:37:59;;;;;;;;;17.60;15.60;;;;;4.12;99.62;98768.59;4744466;30;8885;-76
2021/12/03 08:40:28;;;;;;;;;20.00;14.50;;;;;4.39;99.83;98765.50;4745154;30;8905;-77
2021/12/03 08:42:58;;;;;;;;;20.75;19.00;;;;;4.26;98.19;98770.50;4744100;30;8905;-77
2021/12/03 08:45:27;;;;;;;;;23.25;19.50;;;;;4.53;99.07;98774.25;4715754;30;8909;-77
2021/12/03 08:47:58;;;;;;;;;40.25;36.75;;;;;4.47;98.64;98777.63;4756233;30;8895;-76
2021/12/03 08:50:31;;;;;;;;;38.00;34.50;;;;;4.68;99.33;98782.16;4760272;30;8861;-76
2021/12/03 08:53:14;;;;;;;;;27.75;24.75;;;;;4.81;98.73;98790.91;4719370;30;8884;-77
2021/12/03 08:55:42;;;;;;;;;29.00;29.00;;;;;4.86;98.23;98797.00;4761255;30;8901;-75
2021/12/03 08:58:16;;;;;;;;;33.50;29.25;;;;;4.97;99.14;98798.81;4762066;30;9673;-76
2021/12/03 09:00:45;;;;;;;;;26.50;23.25;;;;;4.58;97.25;98801.00;4724928;30;8879;-76
2021/12/03 09:03:14;;;;;;;;;27.00;18.50;;;;;4.47;97.07;98805.19;4729907;30;9044;-76
2021/12/03 09:05:44;;;;;;;;;23.75;21.50;;;;;4.51;97.94;98803.50;4742683;30;9028;-77
2021/12/03 09:08:13;;;;;;;;;21.25;19.00;;;;;4.68;99.06;98795.06;4728063;30;8921;-76
2021/12/03 09:10:42;;;;;;;;;23.50;21.75;;;;;4.85;99.01;98796.97;4711090;30;8886;-76
2021/12/03 09:13:13;;;;;;;;;21.50;18.00;;;;;5.00;98.57;98809.19;4724133;30;9019;-77
2021/12/03 09:15:45;;;;;;;;;26.00;22.00;;;;;5.13;99.04;98815.34;4712520;30;8891;-77
2021/12/03 09:21:22;;;;;;;;;22.25;21.75;;;;;4.89;96.97;98812.50;4724885;30;8893;-77
2021/12/03 09:24:03;;;;;;;;;24.00;22.25;;;;;5.13;98.09;98810.19;4710359;30;8920;-76
2021/12/03 09:26:34;;;;;;;;;19.50;18.50;;;;;5.00;97.46;98811.78;4709386;30;8985;-76
2021/12/03 09:29:06;;;;;;;;;28.75;26.25;;;;;5.00;98.02;98810.03;4682515;30;8893;-77
2021/12/03 09:31:36;;;;;;;;;24.25;20.50;;;;;5.02;98.61;98821.25;4693150;30;8994;-76
2021/12/03 09:34:09;;;;;;;;;24.75;19.00;;;;;5.04;98.43;98821.28;4704075;30;8898;-78
2021/12/03 09:36:40;;;;;;;;;25.25;19.75;;;;;5.18;98.57;98821.41;4690475;30;9017;-76
2021/12/03 09:39:14;;;;;;;;;19.75;15.75;;;;;4.87;97.75;98813.38;4680488;30;8914;-76
2021/12/03 09:41:43;;;;;;;;;18.00;16.25;;;;;5.08;98.44;98816.19;4704918;30;8910;-77
2021/12/03 09:44:13;;;;;;;;;19.00;19.00;;;;;5.21;98.91;98824.88;4707190;30;8948;-75
2021/12/03 09:46:42;;;;;;;;;23.25;20.00;;;;;5.21;98.70;98824.88;4691393;30;8942;-76
2021/12/03 09:54:45;;;;;;;;;24.00;22.00;;;;;5.50;98.45;98838.94;4687292;30;8917;-77
2021/12/03 09:57:18;;;;;;;;;16.00;16.00;;;;;5.47;97.71;98843.22;4707537;30;9055;-77
2021/12/03 10:00:14;;;;;;;;;21.00;18.75;;;;;5.37;97.73;98836.25;4760363;30;8927;-77
2021/12/03 10:03:05;;;;;;;;;25.80;21.60;;;;;5.39;98.39;98839.72;4731648;30;8896;-76
2021/12/03 10:14:37;;;;;;;;;19.75;19.00;;;;;5.80;97.55;98862.47;4697474;30;8906;-77
2021/12/03 10:20:07;;;;;;;;;19.80;19.00;;;;;5.88;96.63;98877.16;4628234;30;9783;-76
2021/12/03 10:25:38;;;;;;;;;23.00;22.50;;;;;6.04;96.00;98873.88;4627610;30;9013;-77
2021/12/03 10:36:50;;;;;;;;;22.00;20.00;;;;;5.04;95.21;98873.81;4578363;31;8970;-77
2021/12/03 10:39:32;;;;;;;;;21.50;19.25;;;;;5.46;98.43;98871.66;4580458;31;9021;-77
2021/12/03 10:42:12;;;;;;;;;19.75;18.25;;;;;5.59;97.46;98860.56;4592071;31;9035;-77
2021/12/03 10:45:02;;;;;;;;;18.40;16.40;;;;;5.50;96.39;98862.19;4584430;30;8992;-76
2021/12/03 10:47:43;;;;;;;;;22.20;19.00;;;;;5.54;97.39;98857.09;4639751;30;8954;-76
2021/12/03 10:50:43;;;;;;;;;21.60;17.20;;;;;5.67;95.22;98870.97;4625631;30;8907;-78
2021/12/03 10:53:24;;;;;;;;;17.80;16.40;;;;;5.75;96.99;98863.28;4641880;30;8912;-77
2021/12/03 10:56:21;;;;;;;;;19.00;18.00;;;;;5.45;95.08;98873.38;4628589;30;8954;-77
2021/12/03 11:08:03;;;;;;;;;22.25;19.00;;;;;5.03;97.06;98882.44;4660756;30;8901;-77
2021/12/03 12:26:06;;;;;;;;;47.50;40.75;;;;;4.48;100.00;98969.56;4965721;28;8884;-77
2021/12/03 13:27:14;;;;;;;;;61.75;50.25;;;;;4.97;100.00;99016.72;5061324;28;8850;-80
2021/12/03 14:07:01;;;;;;;;;64.00;51.00;;;;;6.75;98.15;99038.34;5085455;28;9117;-81
2021/12/03 14:49:24;;;;;;;;;41.75;39.50;;;;;6.79;86.58;99097.13;5045391;28;8932;-77
2021/12/03 14:52:02;;;;;;;;;49.75;42.75;;;;;6.14;89.44;99097.41;5053628;28;8961;-78
2021/12/03 14:57:36;;;;;;;;;36.75;32.00;;;;;5.69;93.20;99106.38;5023833;28;8934;-79
2021/12/03 15:00:19;;;;;;;;;41.50;36.00;;;;;5.44;92.96;99119.88;4985251;28;8902;-77
2021/12/03 15:05:52;;;;;;;;;55.75;46.00;;;;;5.31;96.47;99115.38;4973027;28;8900;-79
2021/12/03 15:08:23;;;;;;;;;54.50;46.50;;;;;5.23;97.48;99112.69;5023727;28;8853;-77
2021/12/03 15:14:27;;;;;;;;;62.75;47.50;;;;;5.28;99.37;99110.16;4922457;28;8883;-74
2021/12/03 15:25:16;;;;;;;;;71.75;60.00;;;;;5.25;99.61;99130.78;4932023;28;8852;-74
2021/12/03 15:27:59;;;;;;;;;58.25;47.25;;;;;5.18;99.63;99140.19;4929670;28;8878;-75
2021/12/03 15:30:42;;;;;;;;;62.00;52.50;;;;;5.18;100.00;99132.44;4932448;28;8938;-74
2021/12/03 15:33:17;;;;;;;;;73.75;57.50;;;;;5.15;100.00;99145.31;4917381;28;9095;-75
2021/12/03 15:35:55;;;;;;;;;73.75;58.00;;;;;5.13;100.00;99147.00;4987452;28;8834;-76
2021/12/03 15:38:40;;;;;;;;;73.25;60.00;;;;;5.22;100.00;99143.69;4984835;28;8878;-76
2021/12/03 15:58:21;;;;;;;;;70.75;55.25;;;;;5.21;100.00;99165.22;4975067;28;8887;-76
2021/12/03 16:06:37;;;;;;;;;45.25;40.75;;;;;5.11;98.35;99177.13;4893646;29;8994;-76
2021/12/03 16:09:13;;;;;;;;;57.50;49.25;;;;;5.01;98.23;99183.88;4892340;29;8913;-74
2021/12/03 16:11:47;;;;;;;;;35.25;34.25;;;;;4.99;96.76;99183.00;4888361;29;8884;-74
2021/12/03 16:51:17;;;;;;;;;62.25;53.00;;;;;4.88;98.31;99233.59;4805507;29;8917;-79
2021/12/03 16:53:49;;;;;;;;;62.50;50.25;;;;;4.78;99.05;99230.00;4768817;29;8971;-78
2021/12/03 16:56:24;;;;;;;;;64.75;52.50;;;;;4.84;100.00;99239.56;4812802;29;8888;-77
2021/12/03 16:58:55;;;;;;;;;71.75;56.25;;;;;4.83;98.86;99250.72;4885779;29;9010;-78
2021/12/03 17:01:29;;;;;;;;;77.00;62.75;;;;;4.93;99.10;99252.63;4887313;29;9709;-78
2021/12/03 17:04:05;;;;;;;;;69.25;54.00;;;;;4.94;98.94;99248.34;4890353;29;8861;-77
2021/12/03 17:09:53;;;;;;;;;65.50;56.00;;;;;4.84;99.47;99253.34;4918528;28;8871;-80
2021/12/03 17:12:39;;;;;;;;;64.75;50.00;;;;;4.89;99.34;99251.69;4951351;28;8969;-80
2021/12/03 17:49:14;;;;;;;;;72.00;57.25;;;;;5.30;96.81;99273.94;5005386;28;8863;-78
2021/12/03 17:51:53;;;;;;;;;71.25;57.25;;;;;5.33;96.44;99274.00;4988121;28;8893;-74
2021/12/03 17:54:56;;;;;;;;;54.75;46.75;;;;;4.91;94.40;99285.31;4992108;28;8859;-76
2021/12/03 17:57:33;;;;;;;;;62.00;50.00;;;;;4.87;96.00;99274.06;4965050;28;8868;-76
2021/12/03 18:00:07;;;;;;;;;65.25;51.50;;;;;4.81;96.08;99286.00;4921270;28;9688;-75
2021/12/03 18:02:39;;;;;;;;;62.50;52.00;;;;;4.81;96.30;99283.41;4965305;28;9047;-77